createdAt,value
2018-02-21T00:00:44.151Z,2.80
2018-02-21T00:03:11.605Z,2.70
2018-02-21T00:05:39.141Z,2.70
2018-02-21T00:08:06.587Z,2.70
2018-02-21T00:10:34.930Z,2.60
2018-02-21T00:13:02.383Z,2.70
2018-02-21T00:15:29.830Z,2.70
2018-02-21T00:17:57.284Z,2.60
2018-02-21T00:20:24.725Z,2.60
2018-02-21T00:22:52.168Z,2.50
2018-02-21T00:25:19.639Z,2.30
2018-02-21T00:27:47.147Z,2.40
2018-02-21T00:30:15.385Z,2.60
2018-02-21T00:32:42.817Z,2.50
2018-02-21T00:35:10.252Z,2.60
2018-02-21T00:37:37.695Z,2.70
2018-02-21T00:40:05.127Z,2.70
2018-02-21T00:42:32.584Z,2.60
2018-02-21T00:45:00.024Z,2.70
2018-02-21T00:47:27.481Z,2.70
2018-02-21T00:49:54.935Z,2.70
2018-02-21T00:52:22.387Z,2.70
2018-02-21T00:54:49.848Z,2.70
2018-02-21T00:57:17.297Z,2.50
2018-02-21T00:59:44.758Z,2.40
2018-02-21T01:02:12.183Z,2.40
2018-02-21T01:04:39.632Z,2.40
2018-02-21T01:07:07.080Z,2.20
2018-02-21T01:09:34.508Z,2.30
2018-02-21T01:12:01.956Z,2.30
2018-02-21T01:14:29.413Z,2.40
2018-02-21T01:16:56.875Z,2.40
2018-02-21T01:19:24.314Z,2.40
2018-02-21T01:21:51.774Z,2.50
2018-02-21T01:24:19.236Z,2.50
2018-02-21T01:26:46.699Z,2.70
2018-02-21T01:29:14.153Z,2.70
2018-02-21T01:31:41.609Z,2.70
2018-02-21T01:34:09.108Z,2.70
2018-02-21T01:36:36.554Z,2.70
2018-02-21T01:39:03.996Z,2.80
2018-02-21T01:41:31.448Z,2.80
2018-02-21T01:43:58.901Z,2.80
2018-02-21T01:46:26.347Z,2.80
2018-02-21T01:48:53.807Z,2.80
2018-02-21T01:51:21.244Z,2.80
2018-02-21T01:53:48.715Z,2.80
2018-02-21T01:56:16.247Z,2.80
2018-02-21T01:58:43.683Z,2.80
2018-02-21T02:01:11.128Z,2.80
2018-02-21T02:03:38.561Z,2.80
2018-02-21T02:06:06.020Z,2.80
2018-02-21T02:08:33.469Z,2.80
2018-02-21T02:11:00.915Z,2.80
2018-02-21T02:13:28.364Z,2.80
2018-02-21T02:15:55.795Z,2.80
2018-02-21T02:18:23.248Z,2.70
2018-02-21T02:20:51.484Z,2.70
2018-02-21T02:23:18.918Z,2.60
2018-02-21T02:25:46.376Z,2.60
2018-02-21T02:28:13.816Z,2.70
2018-02-21T02:30:41.286Z,2.70
2018-02-21T02:33:08.744Z,2.70
2018-02-21T02:35:36.211Z,2.70
2018-02-21T02:38:03.657Z,2.70
2018-02-21T02:40:31.099Z,2.70
2018-02-21T02:42:58.556Z,2.60
2018-02-21T02:45:25.988Z,2.70
2018-02-21T02:47:53.423Z,2.70
2018-02-21T02:50:20.884Z,2.70
2018-02-21T02:52:48.332Z,2.60
2018-02-21T02:55:15.767Z,2.70
2018-02-21T02:57:43.250Z,2.70
2018-02-21T03:00:10.732Z,2.60
2018-02-21T03:02:38.180Z,2.60
2018-02-21T03:05:05.621Z,2.60
2018-02-21T03:07:33.097Z,2.60
2018-02-21T03:10:00.510Z,2.60
2018-02-21T03:12:27.964Z,2.60
2018-02-21T03:14:55.451Z,2.60
2018-02-21T03:17:22.957Z,2.60
2018-02-21T03:19:50.339Z,2.60
2018-02-21T03:22:17.868Z,2.60
2018-02-21T03:24:45.295Z,2.60
2018-02-21T03:27:12.739Z,2.60
2018-02-21T03:29:40.192Z,2.60
2018-02-21T03:32:07.644Z,2.60
2018-02-21T03:34:35.080Z,2.60
2018-02-21T03:37:02.534Z,2.60
2018-02-21T03:39:29.997Z,2.50
2018-02-21T03:41:57.457Z,2.60
2018-02-21T03:44:24.910Z,2.60
2018-02-21T03:46:52.343Z,2.60
2018-02-21T03:49:19.793Z,2.60
2018-02-21T03:51:47.255Z,2.60
2018-02-21T03:54:15.368Z,2.60
2018-02-21T03:56:42.800Z,2.50
2018-02-21T03:59:10.244Z,2.60
2018-02-21T04:01:37.682Z,2.60
2018-02-21T04:04:05.899Z,2.60
2018-02-21T04:06:33.355Z,2.60
2018-02-21T04:09:00.815Z,2.70
2018-02-21T04:11:28.263Z,2.60
2018-02-21T04:13:55.692Z,2.60
2018-02-21T04:16:23.149Z,2.60
2018-02-21T04:18:50.583Z,2.60
2018-02-21T04:21:18.016Z,2.70
2018-02-21T04:23:45.463Z,2.70
2018-02-21T04:26:12.919Z,2.70
2018-02-21T04:28:40.424Z,2.70
2018-02-21T04:31:07.857Z,2.70
2018-02-21T04:33:35.311Z,2.60
2018-02-21T04:36:02.739Z,2.60
2018-02-21T04:38:30.191Z,2.60
2018-02-21T04:40:57.627Z,2.70
2018-02-21T04:43:25.082Z,2.60
2018-02-21T04:45:52.515Z,2.60
2018-02-21T04:48:20.720Z,2.70
2018-02-21T04:50:48.184Z,2.60
2018-02-21T04:53:15.612Z,2.70
2018-02-21T04:55:48.780Z,2.70
2018-02-21T04:58:21.891Z,2.60
2018-02-21T05:00:49.341Z,2.60
2018-02-21T05:03:16.801Z,2.60
2018-02-21T05:05:44.232Z,2.60
2018-02-21T05:08:11.687Z,2.60
2018-02-21T05:10:39.155Z,2.60
2018-02-21T05:13:06.624Z,2.50
2018-02-21T05:15:34.062Z,2.50
2018-02-21T05:18:01.525Z,2.50
2018-02-21T05:20:28.954Z,2.40
2018-02-21T05:22:56.403Z,2.30
2018-02-21T05:25:23.860Z,2.30
2018-02-21T05:27:51.287Z,2.30
2018-02-21T05:30:18.720Z,2.40
2018-02-21T05:32:46.956Z,2.40
2018-02-21T05:35:14.387Z,2.30
2018-02-21T05:37:41.839Z,2.40
2018-02-21T05:40:09.297Z,2.40
2018-02-21T05:42:36.728Z,2.40
2018-02-21T05:45:04.180Z,2.40
2018-02-21T05:47:31.615Z,2.50
2018-02-21T05:49:59.116Z,2.50
2018-02-21T05:52:26.550Z,2.60
2018-02-21T05:54:53.998Z,2.50
2018-02-21T05:57:21.464Z,2.20
2018-02-21T05:59:49.152Z,2.30
2018-02-21T06:02:16.555Z,2.40
2018-02-21T06:04:44.004Z,2.40
2018-02-21T06:07:11.595Z,2.30
2018-02-21T06:09:39.035Z,2.30
2018-02-21T06:12:06.496Z,2.30
2018-02-21T06:14:33.942Z,2.30
2018-02-21T06:17:01.363Z,2.30
2018-02-21T06:19:28.828Z,2.30
2018-02-21T06:21:56.287Z,2.30
2018-02-21T06:24:23.720Z,2.30
2018-02-21T06:26:51.939Z,2.40
2018-02-21T06:29:19.384Z,2.40
2018-02-21T06:31:46.846Z,2.50
2018-02-21T06:34:14.279Z,2.50
2018-02-21T06:36:41.756Z,2.60
2018-02-21T06:39:09.245Z,2.50
2018-02-21T06:41:36.688Z,2.50
2018-02-21T06:44:04.123Z,2.50
2018-02-21T06:46:31.609Z,2.50
2018-02-21T06:48:59.073Z,2.50
2018-02-21T06:51:26.536Z,2.50
2018-02-21T06:53:53.967Z,2.40
2018-02-21T06:56:23.528Z,2.30
2018-02-21T06:58:50.975Z,2.30
2018-02-21T07:01:18.419Z,2.20
2018-02-21T07:03:45.877Z,2.30
2018-02-21T07:06:13.340Z,2.20
2018-02-21T07:08:40.780Z,2.30
2018-02-21T07:11:08.244Z,2.20
2018-02-21T07:13:35.705Z,2.20
2018-02-21T07:16:03.155Z,2.30
2018-02-21T07:18:30.641Z,2.30
2018-02-21T07:20:58.099Z,2.30
2018-02-21T07:23:25.544Z,2.40
2018-02-21T07:25:53.009Z,2.50
2018-02-21T07:28:20.451Z,2.50
2018-02-21T07:30:47.887Z,2.50
2018-02-21T07:33:15.844Z,2.50
2018-02-21T07:35:43.297Z,2.50
2018-02-21T07:38:10.744Z,2.50
2018-02-21T07:40:38.403Z,2.60
2018-02-21T07:43:05.848Z,2.60
2018-02-21T07:45:33.300Z,2.60
2018-02-21T07:48:00.760Z,2.70
2018-02-21T07:50:28.187Z,2.70
2018-02-21T07:52:55.650Z,2.60
2018-02-21T07:55:23.083Z,2.60
2018-02-21T07:57:50.541Z,2.70
2018-02-21T08:00:17.999Z,2.70
2018-02-21T08:02:45.549Z,2.70
2018-02-21T08:05:12.988Z,2.80
2018-02-21T08:07:40.441Z,2.80
2018-02-21T08:10:07.883Z,2.80
2018-02-21T08:12:35.330Z,2.80
2018-02-21T08:15:02.805Z,2.70
2018-02-21T08:17:30.243Z,2.70
2018-02-21T08:19:57.698Z,2.40
2018-02-21T08:22:25.144Z,2.70
2018-02-21T08:24:52.615Z,2.80
2018-02-21T08:27:20.063Z,2.90
2018-02-21T08:29:47.539Z,3.00
2018-02-21T08:32:15.002Z,3.10
2018-02-21T08:34:42.500Z,3.20
2018-02-21T08:37:10.005Z,3.30
2018-02-21T08:39:37.444Z,3.40
2018-02-21T08:42:04.916Z,3.50
2018-02-21T08:44:32.351Z,3.70
2018-02-21T08:46:59.836Z,3.80
2018-02-21T08:49:27.271Z,3.80
2018-02-21T08:51:54.795Z,3.90
2018-02-21T08:54:22.223Z,3.90
2018-02-21T08:56:49.656Z,3.90
2018-02-21T08:59:17.899Z,4.10
2018-02-21T09:01:45.393Z,4.10
2018-02-21T09:04:12.846Z,4.10
2018-02-21T09:06:40.315Z,4.20
2018-02-21T09:09:07.831Z,4.20
2018-02-21T09:11:35.327Z,4.10
2018-02-21T09:14:02.752Z,4.20
2018-02-21T09:16:30.333Z,4.10
2018-02-21T09:18:57.714Z,4.40
2018-02-21T09:21:25.171Z,4.50
2018-02-21T09:23:52.627Z,4.60
2018-02-21T09:26:20.084Z,4.50
2018-02-21T09:28:47.548Z,4.50
2018-02-21T09:31:15.256Z,4.30
2018-02-21T09:33:42.712Z,4.40
2018-02-21T09:36:10.156Z,4.40
2018-02-21T09:38:37.662Z,4.40
2018-02-21T09:41:05.855Z,4.60
2018-02-21T09:43:33.311Z,4.60
2018-02-21T09:46:00.759Z,4.60
2018-02-21T09:48:28.212Z,4.70
2018-02-21T09:50:55.666Z,4.80
2018-02-21T09:53:23.952Z,4.90
2018-02-21T09:55:51.413Z,4.80
2018-02-21T09:58:19.611Z,5.00
2018-02-21T10:00:47.175Z,4.90
2018-02-21T10:03:14.832Z,5.20
2018-02-21T10:05:42.270Z,5.20
2018-02-21T10:08:09.706Z,5.40
2018-02-21T10:10:37.920Z,5.80
2018-02-21T10:13:05.373Z,5.80
2018-02-21T10:15:32.826Z,6.10
2018-02-21T10:18:00.274Z,6.40
2018-02-21T10:20:27.709Z,6.30
2018-02-21T10:22:55.955Z,7.10
2018-02-21T10:25:23.448Z,7.00
2018-02-21T10:27:51.665Z,7.30
2018-02-21T10:30:19.096Z,7.30
2018-02-21T10:32:46.539Z,7.10
2018-02-21T10:35:14.000Z,6.70
2018-02-21T10:37:42.378Z,7.00
2018-02-21T10:40:09.820Z,7.00
2018-02-21T10:42:37.244Z,7.30
2018-02-21T10:45:04.696Z,7.70
2018-02-21T10:47:32.129Z,7.80
2018-02-21T10:49:59.568Z,8.10
2018-02-21T10:52:26.995Z,8.70
2018-02-21T10:54:55.216Z,8.50
2018-02-21T10:57:22.646Z,8.40
2018-02-21T10:59:50.115Z,8.20
2018-02-21T11:02:17.560Z,7.70
2018-02-21T11:04:45.009Z,8.10
2018-02-21T11:07:12.449Z,7.90
2018-02-21T11:09:39.895Z,8.60
2018-02-21T11:12:07.427Z,9.80
2018-02-21T11:14:35.040Z,10.80
2018-02-21T11:17:03.327Z,10.80
2018-02-21T11:19:30.919Z,11.90
2018-02-21T11:21:58.353Z,13.10
2018-02-21T11:24:26.564Z,16.20
2018-02-21T11:26:54.025Z,16.10
2018-02-21T11:29:21.471Z,16.90
2018-02-21T11:31:49.124Z,17.20
2018-02-21T11:34:16.582Z,15.70
2018-02-21T11:36:44.038Z,15.90
2018-02-21T11:39:11.472Z,16.00
2018-02-21T11:41:38.916Z,15.70
2018-02-21T11:44:07.125Z,15.00
2018-02-21T11:46:34.578Z,14.90
2018-02-21T11:49:02.053Z,15.10
2018-02-21T11:51:29.492Z,14.90
2018-02-21T11:53:56.930Z,14.60
2018-02-21T11:56:24.411Z,14.50
2018-02-21T11:58:51.864Z,14.30
2018-02-21T12:01:19.289Z,14.40
2018-02-21T12:03:46.792Z,14.60
2018-02-21T12:06:14.235Z,14.40
2018-02-21T12:08:41.681Z,14.90
2018-02-21T12:11:09.119Z,15.40
2018-02-21T12:13:36.617Z,15.80
2018-02-21T12:16:04.095Z,16.40
2018-02-21T12:18:31.563Z,17.10
2018-02-21T12:20:58.996Z,17.70
2018-02-21T12:23:26.653Z,18.40
2018-02-21T12:25:54.212Z,18.70
2018-02-21T12:28:21.652Z,18.60
2018-02-21T12:30:49.115Z,17.80
2018-02-21T12:33:16.547Z,17.50
2018-02-21T12:35:44.020Z,17.40
2018-02-21T12:38:11.490Z,16.90
2018-02-21T12:40:44.536Z,16.50
2018-02-21T12:43:11.979Z,16.70
2018-02-21T12:45:39.418Z,16.80
2018-02-21T12:48:06.851Z,17.90
2018-02-21T12:50:34.305Z,19.60
2018-02-21T12:53:01.736Z,21.30
2018-02-21T12:55:29.244Z,22.50
2018-02-21T12:57:56.676Z,23.00
2018-02-21T13:00:24.120Z,24.30
2018-02-21T13:02:51.547Z,24.70
2018-02-21T13:05:18.980Z,24.80
2018-02-21T13:07:46.408Z,25.70
2018-02-21T13:10:13.994Z,25.70
2018-02-21T13:12:41.418Z,25.50
2018-02-21T13:15:08.871Z,25.70
2018-02-21T13:17:36.297Z,24.70
2018-02-21T13:20:03.736Z,23.70
2018-02-21T13:22:31.159Z,23.60
2018-02-21T13:24:58.651Z,23.90
2018-02-21T13:27:26.087Z,23.50
2018-02-21T13:29:53.535Z,23.20
2018-02-21T13:32:21.072Z,22.30
2018-02-21T13:34:48.537Z,20.90
2018-02-21T13:37:15.971Z,20.10
2018-02-21T13:39:43.432Z,19.80
2018-02-21T13:42:11.661Z,19.60
2018-02-21T13:44:39.129Z,19.50
2018-02-21T13:47:06.663Z,19.40
2018-02-21T13:49:34.107Z,19.20
2018-02-21T13:52:01.538Z,18.90
2018-02-21T13:54:29.343Z,18.70
2018-02-21T13:56:56.774Z,18.20
2018-02-21T13:59:24.340Z,17.40
2018-02-21T14:01:51.792Z,16.30
2018-02-21T14:04:19.244Z,15.40
2018-02-21T14:06:46.684Z,14.70
2018-02-21T14:09:14.140Z,14.10
2018-02-21T14:11:41.627Z,13.50
2018-02-21T14:14:09.085Z,13.00
2018-02-21T14:16:36.547Z,12.50
2018-02-21T14:19:03.986Z,12.40
2018-02-21T14:21:31.431Z,12.30
2018-02-21T14:23:58.873Z,12.20
2018-02-21T14:26:26.318Z,12.10
2018-02-21T14:28:53.853Z,11.80
2018-02-21T14:31:21.297Z,11.60
2018-02-21T14:33:49.045Z,11.30
2018-02-21T14:36:16.487Z,10.90
2018-02-21T14:38:43.924Z,10.70
2018-02-21T14:41:11.615Z,10.40
2018-02-21T14:43:39.062Z,9.90
2018-02-21T14:46:06.648Z,9.50
2018-02-21T14:48:34.085Z,9.00
2018-02-21T14:51:01.543Z,8.80
2018-02-21T14:53:29.023Z,8.60
2018-02-21T14:55:56.477Z,8.50
2018-02-21T14:58:24.677Z,8.10
2018-02-21T15:00:52.279Z,8.00
2018-02-21T15:03:19.717Z,7.80
2018-02-21T15:05:47.147Z,7.80
2018-02-21T15:08:14.615Z,7.70
2018-02-21T15:10:42.136Z,7.60
2018-02-21T15:13:09.565Z,7.50
2018-02-21T15:15:37.019Z,7.40
2018-02-21T15:18:04.456Z,7.50
2018-02-21T15:20:31.888Z,7.30
2018-02-21T15:22:59.393Z,7.20
2018-02-21T15:25:26.832Z,7.00
2018-02-21T15:27:54.273Z,7.10
2018-02-21T15:30:21.720Z,7.10
2018-02-21T15:32:49.162Z,7.20
2018-02-21T15:35:16.657Z,7.10
2018-02-21T15:37:44.083Z,6.70
2018-02-21T15:40:11.517Z,6.80
2018-02-21T15:42:39.024Z,6.80
2018-02-21T15:45:07.395Z,6.70
2018-02-21T15:47:34.810Z,6.60
2018-02-21T15:50:02.265Z,6.50
2018-02-21T15:52:30.121Z,6.40
2018-02-21T15:54:57.697Z,6.30
2018-02-21T15:57:25.147Z,6.20
2018-02-21T15:59:52.576Z,6.10
2018-02-21T16:02:20.276Z,6.00
2018-02-21T16:04:47.797Z,5.90
2018-02-21T16:07:15.190Z,5.60
2018-02-21T16:09:42.640Z,5.60
2018-02-21T16:12:10.072Z,5.60
2018-02-21T16:14:37.521Z,5.60
2018-02-21T16:17:04.976Z,5.40
2018-02-21T16:19:32.407Z,5.40
2018-02-21T16:21:59.864Z,5.40
2018-02-21T16:24:27.583Z,5.30
2018-02-21T16:26:55.129Z,5.30
2018-02-21T16:29:22.556Z,5.20
2018-02-21T16:31:49.999Z,5.20
2018-02-21T16:34:17.480Z,5.20
2018-02-21T16:36:45.899Z,5.10
2018-02-21T16:39:13.380Z,5.00
2018-02-21T16:41:40.823Z,5.10
2018-02-21T16:44:08.276Z,5.00
2018-02-21T16:46:35.723Z,5.00
2018-02-21T16:49:03.212Z,4.90
2018-02-21T16:51:30.628Z,4.80
2018-02-21T16:54:03.706Z,4.80
2018-02-21T16:56:31.141Z,4.80
2018-02-21T16:58:58.591Z,4.70
2018-02-21T17:01:26.031Z,4.70
2018-02-21T17:03:53.560Z,4.70
2018-02-21T17:06:20.995Z,4.60
2018-02-21T17:08:48.468Z,4.60
2018-02-21T17:11:16.108Z,4.60
2018-02-21T17:13:43.555Z,4.70
2018-02-21T17:16:11.028Z,4.60
2018-02-21T17:18:38.467Z,4.70
2018-02-21T17:21:06.687Z,4.60
2018-02-21T17:23:34.124Z,4.60
2018-02-21T17:26:01.583Z,4.60
2018-02-21T17:28:29.061Z,4.60
2018-02-21T17:30:56.480Z,4.60
2018-02-21T17:33:24.137Z,4.40
2018-02-21T17:35:51.579Z,4.40
2018-02-21T17:38:19.080Z,4.10
2018-02-21T17:40:52.052Z,4.00
2018-02-21T17:43:19.516Z,4.00
2018-02-21T17:45:46.960Z,4.10
2018-02-21T17:48:14.404Z,4.20
2018-02-21T17:50:41.839Z,4.20
2018-02-21T17:53:09.283Z,4.20
2018-02-21T17:55:36.764Z,4.30
2018-02-21T17:58:04.983Z,4.40
2018-02-21T18:00:32.436Z,4.40
2018-02-21T18:02:59.926Z,4.40
2018-02-21T18:05:27.364Z,4.40
2018-02-21T18:07:54.795Z,4.50
2018-02-21T18:10:22.256Z,4.50
2018-02-21T18:12:49.699Z,4.50
2018-02-21T18:15:17.155Z,4.50
2018-02-21T18:17:44.804Z,4.40
2018-02-21T18:20:13.026Z,4.40
2018-02-21T18:22:40.473Z,4.40
2018-02-21T18:25:07.933Z,4.40
2018-02-21T18:27:35.361Z,4.40
2018-02-21T18:30:02.801Z,4.50
2018-02-21T18:32:30.289Z,4.40
2018-02-21T18:34:57.720Z,4.40
2018-02-21T18:37:25.167Z,4.30
2018-02-21T18:39:52.623Z,4.30
2018-02-21T18:42:20.085Z,4.30
2018-02-21T18:44:47.535Z,4.20
2018-02-21T18:47:14.983Z,4.20
2018-02-21T18:49:42.438Z,4.10
2018-02-21T18:52:09.896Z,4.10
2018-02-21T18:54:37.358Z,4.00
2018-02-21T18:57:04.799Z,3.90
2018-02-21T18:59:32.247Z,3.90
2018-02-21T19:01:59.688Z,3.90
2018-02-21T19:04:27.132Z,3.90
2018-02-21T19:06:54.580Z,3.90
2018-02-21T19:09:22.038Z,3.80
2018-02-21T19:11:49.503Z,3.80
2018-02-21T19:14:19.301Z,3.80
2018-02-21T19:16:47.231Z,3.80
2018-02-21T19:19:14.671Z,3.70
2018-02-21T19:21:42.136Z,3.70
2018-02-21T19:24:09.588Z,3.70
2018-02-21T19:26:37.036Z,3.60
2018-02-21T19:29:04.480Z,3.60
2018-02-21T19:31:31.944Z,3.60
2018-02-21T19:33:59.397Z,3.50
2018-02-21T19:36:26.857Z,3.40
2018-02-21T19:38:54.311Z,3.40
2018-02-21T19:41:21.748Z,3.30
2018-02-21T19:43:49.228Z,3.20
2018-02-21T19:46:16.654Z,3.10
2018-02-21T19:48:44.099Z,3.10
2018-02-21T19:51:11.549Z,3.00
2018-02-21T19:53:38.984Z,3.00
2018-02-21T19:56:06.443Z,3.00
2018-02-21T19:58:33.913Z,3.00
2018-02-21T20:01:01.353Z,2.90
2018-02-21T20:03:28.803Z,2.90
2018-02-21T20:05:56.286Z,3.00
2018-02-21T20:08:23.706Z,3.00
2018-02-21T20:10:51.135Z,3.00
2018-02-21T20:13:18.590Z,3.10
2018-02-21T20:15:46.038Z,3.10
2018-02-21T20:18:14.275Z,3.10
2018-02-21T20:20:41.715Z,3.00
2018-02-21T20:23:09.178Z,3.00
2018-02-21T20:25:37.419Z,3.00
2018-02-21T20:28:04.985Z,2.80
2018-02-21T20:30:32.455Z,2.50
2018-02-21T20:32:59.905Z,2.50
2018-02-21T20:35:27.369Z,2.40
2018-02-21T20:37:54.815Z,2.50
2018-02-21T20:40:22.251Z,2.40
2018-02-21T20:42:49.687Z,2.50
2018-02-21T20:45:17.150Z,2.40
2018-02-21T20:47:44.592Z,2.40
2018-02-21T20:50:12.059Z,2.20
2018-02-21T20:52:39.512Z,2.20
2018-02-21T20:55:06.963Z,2.40
2018-02-21T20:57:34.407Z,2.50
2018-02-21T21:00:01.863Z,2.40
2018-02-21T21:02:29.309Z,2.20
2018-02-21T21:04:56.756Z,2.30
2018-02-21T21:07:24.223Z,2.40
2018-02-21T21:09:51.660Z,2.50
2018-02-21T21:12:19.176Z,2.50
2018-02-21T21:14:46.623Z,2.20
2018-02-21T21:17:14.064Z,2.30
2018-02-21T21:19:41.507Z,1.90
2018-02-21T21:22:08.952Z,1.80
2018-02-21T21:24:36.386Z,1.80
2018-02-21T21:27:03.848Z,1.80
2018-02-21T21:29:31.273Z,1.70
2018-02-21T21:31:59.495Z,1.60
2018-02-21T21:34:26.924Z,1.60
2018-02-21T21:36:54.379Z,1.60
2018-02-21T21:39:21.837Z,1.70
2018-02-21T21:41:49.275Z,1.80
2018-02-21T21:44:17.484Z,1.90
2018-02-21T21:46:44.935Z,1.90
2018-02-21T21:49:12.515Z,2.00
2018-02-21T21:51:40.025Z,2.10
2018-02-21T21:54:07.424Z,2.10
2018-02-21T21:56:34.941Z,2.10
2018-02-21T21:59:02.387Z,2.10
2018-02-21T22:01:30.625Z,2.20
2018-02-21T22:03:58.070Z,2.10
2018-02-21T22:06:25.496Z,2.20
2018-02-21T22:08:52.941Z,2.20
2018-02-21T22:11:20.383Z,2.20
2018-02-21T22:13:47.821Z,2.20
2018-02-21T22:16:15.277Z,2.20
2018-02-21T22:18:42.748Z,2.10
2018-02-21T22:21:10.184Z,2.10
2018-02-21T22:23:37.638Z,2.10
2018-02-21T22:26:06.092Z,2.10
2018-02-21T22:28:33.543Z,2.00
2018-02-21T22:31:00.998Z,2.10
2018-02-21T22:33:28.449Z,2.10
2018-02-21T22:35:55.894Z,2.10
2018-02-21T22:38:23.324Z,2.10
2018-02-21T22:40:50.768Z,2.00
2018-02-21T22:43:18.585Z,2.00
2018-02-21T22:45:46.004Z,1.90
2018-02-21T22:48:13.456Z,1.80
2018-02-21T22:50:40.895Z,1.80
2018-02-21T22:53:08.346Z,1.70
2018-02-21T22:55:35.789Z,1.60
2018-02-21T22:58:03.244Z,1.60
2018-02-21T23:00:33.605Z,1.60
2018-02-21T23:03:01.207Z,1.60
2018-02-21T23:05:28.651Z,1.50
2018-02-21T23:07:56.109Z,1.50
2018-02-21T23:10:23.560Z,1.50
2018-02-21T23:12:51.004Z,1.40
2018-02-21T23:15:18.452Z,1.30
2018-02-21T23:17:45.887Z,1.30
2018-02-21T23:20:13.339Z,1.30
2018-02-21T23:22:40.768Z,1.30
2018-02-21T23:25:08.992Z,1.20
2018-02-21T23:27:36.414Z,1.10
2018-02-21T23:30:03.851Z,1.10
2018-02-21T23:32:31.317Z,1.10
2018-02-21T23:34:58.767Z,1.00
2018-02-21T23:37:26.211Z,1.00
2018-02-21T23:39:53.664Z,1.00
2018-02-21T23:42:21.114Z,0.90
2018-02-21T23:44:48.560Z,0.90
2018-02-21T23:47:16.023Z,0.80
2018-02-21T23:49:43.456Z,0.80
2018-02-21T23:52:11.144Z,0.80
2018-02-21T23:54:38.579Z,0.80
2018-02-21T23:57:06.034Z,0.80
2018-02-21T23:59:33.459Z,0.80
